M/V Humpback — WCY3381 — position and weather

sailwx.info

Track history (hours):
 
Tides and Currents Weather Stations Pressure Air Temp Water Temp Dewpoint Dewpoint Depression Visibility Wind Speed Wind Dir Waves Ship Positions

M/V Humpback

Owner: R W MILLER ENTERPRISES INC, FRIDAY HARBOR, WA. More information available from US FCC via Universal Licensing System and Coast Guard Vessel Documentation Center.

Last reported at 2014-Oct-23 17:21 UTC. Time now 2014-Oct-25 00:43 UTC.
Position N 48°40' W 123°11'.

Length 16 m.

Type: Passenger vessel. MMSI: 367350790.

Date/timePositionNaut miles runAvg speedWind from/ knotsBaromVisibWave heightAir tempDewpointWater temp
2014-Oct-23 17:21N 48°40' W 123°11'4 4.7
2014-Oct-23 16:33N 48°37' W 123°09'2 1.5
2014-Oct-23 15:29N 48°38' W 123°10'2 1.7
2014-Oct-23 14:33N 48°37' W 123°09'0 0.0
2014-Oct-23 13:33N 48°37' W 123°09'0 0.0
2014-Oct-23 12:33N 48°37' W 123°09'0 0.0
2014-Oct-23 11:33N 48°37' W 123°09'0 0.0
2014-Oct-23 10:33N 48°37' W 123°09'0 0.0
2014-Oct-23 09:33N 48°37' W 123°09'0 0.0
2014-Oct-23 08:33N 48°37' W 123°09'0 0.0
2014-Oct-23 07:33N 48°37' W 123°09'0 0.0
2014-Oct-23 06:33N 48°37' W 123°09'0 0.0
2014-Oct-23 05:33N 48°37' W 123°09'0 0.0
2014-Oct-23 04:33N 48°37' W 123°09'0 0.0
2014-Oct-23 03:33N 48°37' W 123°09'0 0.0
2014-Oct-23 02:33N 48°37' W 123°09'0 0.0
2014-Oct-23 01:33N 48°37' W 123°09'0 0.0
2014-Oct-23 00:33N 48°37' W 123°09'3 2.6
2014-Oct-22 23:34N 48°39' W 123°10'3 2.4
2014-Oct-22 22:31N 48°37' W 123°09'0 0.1
2014-Oct-22 21:31N 48°37' W 123°09'0 0.0
2014-Oct-22 20:31N 48°37' W 123°09'0 0.0
2014-Oct-22 19:31N 48°37' W 123°09'0 0.0
2014-Oct-22 18:33N 48°37' W 123°09'0 0.4
2014-Oct-22 17:32N 48°37' W 123°10'0 0.4
2014-Oct-22 16:33N 48°37' W 123°09'0 0.0
2014-Oct-22 14:31N 48°37' W 123°09'0 0.0
2014-Oct-22 13:31N 48°37' W 123°09'0 0.0
2014-Oct-22 12:31N 48°37' W 123°09'0 0.0
2014-Oct-22 11:31N 48°37' W 123°09'0 0.0
2014-Oct-22 10:31N 48°37' W 123°09'0 0.0
2014-Oct-22 09:31N 48°37' W 123°09'0 0.0
2014-Oct-22 08:31N 48°37' W 123°09'0 0.0
2014-Oct-22 07:31N 48°37' W 123°09'0 0.0
2014-Oct-22 06:31N 48°37' W 123°09'0 0.0
2014-Oct-22 05:31N 48°37' W 123°09'0 0.0
2014-Oct-22 04:31N 48°37' W 123°09'0 0.0
2014-Oct-22 03:31N 48°37' W 123°09'0 0.0
2014-Oct-22 02:31N 48°37' W 123°09'0 0.0
2014-Oct-22 01:31N 48°37' W 123°09'0 0.0
2014-Oct-22 00:31N 48°37' W 123°09'0 0.0
2014-Oct-21 23:31N 48°37' W 123°09'  
2014-Oct-19 06:55N 48°37' W 123°09'0 0.0
2014-Oct-19 00:49N 48°37' W 123°09'0 0.0
2014-Oct-19 00:04N 48°37' W 123°09'0 0.0
2014-Oct-18 23:04N 48°37' W 123°09'0 0.0
2014-Oct-18 22:04N 48°37' W 123°09'0 0.0
2014-Oct-18 20:34N 48°37' W 123°09'0 0.0
2014-Oct-17 17:35N 48°37' W 123°09'0 0.0
2014-Oct-17 16:05N 48°37' W 123°09'0 0.0
2014-Oct-17 07:02N 48°37' W 123°09'0 0.0
2014-Oct-16 19:03N 48°36' W 123°09'2 1.6
2014-Oct-16 17:48N 48°38' W 123°10'2 0.8
2014-Oct-16 15:22N 48°37' W 123°09'  
Track history (hours):
 
Tides and Currents Weather Stations Pressure Air Temp Water Temp Dewpoint Dewpoint Depression Visibility Wind Speed Wind Dir Waves Ship Positions

M/V Humpback

Owner: R W MILLER ENTERPRISES INC, FRIDAY HARBOR, WA. More information available from US FCC via Universal Licensing System and Coast Guard Vessel Documentation Center.

Last reported at 2014-Oct-23 17:21 UTC. Time now 2014-Oct-25 00:43 UTC.
Position N 48°40' W 123°11'.

Length 16 m.

Type: Passenger vessel. MMSI: 367350790.

Date/timePositionNaut miles runAvg speedWind from/ knotsBaromVisibWave heightAir tempDewpointWater temp
2014-Oct-23 17:21N 48°40' W 123°11'4 4.7
2014-Oct-23 16:33N 48°37' W 123°09'2 1.5
2014-Oct-23 15:29N 48°38' W 123°10'2 1.7
2014-Oct-23 14:33N 48°37' W 123°09'0 0.0
2014-Oct-23 13:33N 48°37' W 123°09'0 0.0
2014-Oct-23 12:33N 48°37' W 123°09'0 0.0
2014-Oct-23 11:33N 48°37' W 123°09'0 0.0
2014-Oct-23 10:33N 48°37' W 123°09'0 0.0
2014-Oct-23 09:33N 48°37' W 123°09'0 0.0
2014-Oct-23 08:33N 48°37' W 123°09'0 0.0
2014-Oct-23 07:33N 48°37' W 123°09'0 0.0
2014-Oct-23 06:33N 48°37' W 123°09'0 0.0
2014-Oct-23 05:33N 48°37' W 123°09'0 0.0
2014-Oct-23 04:33N 48°37' W 123°09'0 0.0
2014-Oct-23 03:33N 48°37' W 123°09'0 0.0
2014-Oct-23 02:33N 48°37' W 123°09'0 0.0
2014-Oct-23 01:33N 48°37' W 123°09'0 0.0
2014-Oct-23 00:33N 48°37' W 123°09'3 2.6
2014-Oct-22 23:34N 48°39' W 123°10'3 2.4
2014-Oct-22 22:31N 48°37' W 123°09'0 0.1
2014-Oct-22 21:31N 48°37' W 123°09'0 0.0
2014-Oct-22 20:31N 48°37' W 123°09'0 0.0
2014-Oct-22 19:31N 48°37' W 123°09'0 0.0
2014-Oct-22 18:33N 48°37' W 123°09'0 0.4
2014-Oct-22 17:32N 48°37' W 123°10'0 0.4
2014-Oct-22 16:33N 48°37' W 123°09'0 0.0
2014-Oct-22 14:31N 48°37' W 123°09'0 0.0
2014-Oct-22 13:31N 48°37' W 123°09'0 0.0
2014-Oct-22 12:31N 48°37' W 123°09'0 0.0
2014-Oct-22 11:31N 48°37' W 123°09'0 0.0
2014-Oct-22 10:31N 48°37' W 123°09'0 0.0
2014-Oct-22 09:31N 48°37' W 123°09'0 0.0
2014-Oct-22 08:31N 48°37' W 123°09'0 0.0
2014-Oct-22 07:31N 48°37' W 123°09'0 0.0
2014-Oct-22 06:31N 48°37' W 123°09'0 0.0
2014-Oct-22 05:31N 48°37' W 123°09'0 0.0
2014-Oct-22 04:31N 48°37' W 123°09'0 0.0
2014-Oct-22 03:31N 48°37' W 123°09'0 0.0
2014-Oct-22 02:31N 48°37' W 123°09'0 0.0
2014-Oct-22 01:31N 48°37' W 123°09'0 0.0
2014-Oct-22 00:31N 48°37' W 123°09'0 0.0
2014-Oct-21 23:31N 48°37' W 123°09'  
2014-Oct-19 06:55N 48°37' W 123°09'0 0.0
2014-Oct-19 00:49N 48°37' W 123°09'0 0.0
2014-Oct-19 00:04N 48°37' W 123°09'0 0.0
2014-Oct-18 23:04N 48°37' W 123°09'0 0.0
2014-Oct-18 22:04N 48°37' W 123°09'0 0.0
2014-Oct-18 20:34N 48°37' W 123°09'0 0.0
2014-Oct-17 17:35N 48°37' W 123°09'0 0.0
2014-Oct-17 16:05N 48°37' W 123°09'0 0.0
2014-Oct-17 07:02N 48°37' W 123°09'0 0.0
2014-Oct-16 19:03N 48°36' W 123°09'2 1.6
2014-Oct-16 17:48N 48°38' W 123°10'2 0.8
2014-Oct-16 15:22N 48°37' W 123°09'  

Dump ship's entire track history